sensor_id;sensor_type;location;lat;lon;timestamp;P1;durP1;ratioP1;P2;durP2;ratioP2
26977;SDS011;56314;48.088;11.642;2022-09-21T00:00:49;7.70;;;3.70;;
26977;SDS011;56314;48.088;11.642;2022-09-21T00:03:14;7.28;;;4.05;;
26977;SDS011;56314;48.088;11.642;2022-09-21T00:05:40;5.50;;;3.25;;
26977;SDS011;56314;48.088;11.642;2022-09-21T00:08:06;11.38;;;3.63;;
26977;SDS011;56314;48.088;11.642;2022-09-21T00:10:34;5.80;;;3.40;;
26977;SDS011;56314;48.088;11.642;2022-09-21T00:13:00;6.57;;;3.65;;
26977;SDS011;56314;48.088;11.642;2022-09-21T00:15:28;5.25;;;3.30;;
26977;SDS011;56314;48.088;11.642;2022-09-21T00:17:55;6.15;;;3.13;;
26977;SDS011;56314;48.088;11.642;2022-09-21T00:20:22;10.00;;;3.95;;
26977;SDS011;56314;48.088;11.642;2022-09-21T00:22:49;7.55;;;3.15;;
26977;SDS011;56314;48.088;11.642;2022-09-21T00:25:15;4.85;;;3.45;;
26977;SDS011;56314;48.088;11.642;2022-09-21T00:27:42;7.85;;;4.13;;
26977;SDS011;56314;48.088;11.642;2022-09-21T00:30:08;7.68;;;3.90;;
26977;SDS011;56314;48.088;11.642;2022-09-21T00:32:35;5.38;;;3.35;;
26977;SDS011;56314;48.088;11.642;2022-09-21T00:35:02;9.40;;;3.53;;
26977;SDS011;56314;48.088;11.642;2022-09-21T00:37:28;6.22;;;3.47;;
26977;SDS011;56314;48.088;11.642;2022-09-21T00:39:54;5.70;;;3.38;;
26977;SDS011;56314;48.088;11.642;2022-09-21T00:42:27;4.88;;;3.35;;
26977;SDS011;56314;48.088;11.642;2022-09-21T00:44:58;6.25;;;3.83;;
26977;SDS011;56314;48.088;11.642;2022-09-21T00:47:28;5.82;;;3.35;;
26977;SDS011;56314;48.088;11.642;2022-09-21T00:49:58;5.13;;;3.15;;
26977;SDS011;56314;48.088;11.642;2022-09-21T00:52:27;5.20;;;2.85;;
26977;SDS011;56314;48.088;11.642;2022-09-21T00:54:57;5.07;;;2.53;;
26977;SDS011;56314;48.088;11.642;2022-09-21T00:57:27;3.85;;;2.83;;
26977;SDS011;56314;48.088;11.642;2022-09-21T00:59:55;6.75;;;2.90;;
26977;SDS011;56314;48.088;11.642;2022-09-21T01:02:25;6.68;;;3.47;;
26977;SDS011;56314;48.088;11.642;2022-09-21T01:04:51;4.90;;;2.60;;
26977;SDS011;56314;48.088;11.642;2022-09-21T01:07:21;4.07;;;3.10;;
26977;SDS011;56314;48.088;11.642;2022-09-21T01:09:52;5.95;;;2.97;;
26977;SDS011;56314;48.088;11.642;2022-09-21T01:26:21;8.73;;;3.38;;
26977;SDS011;56314;48.088;11.642;2022-09-21T01:29:18;4.78;;;2.75;;
26977;SDS011;56314;48.088;11.642;2022-09-21T01:34:34;8.00;;;2.85;;
26977;SDS011;56314;48.088;11.642;2022-09-21T01:37:10;8.85;;;3.53;;
26977;SDS011;56314;48.088;11.642;2022-09-21T01:39:41;4.68;;;2.85;;
26977;SDS011;56314;48.088;11.642;2022-09-21T01:42:09;5.10;;;2.63;;
26977;SDS011;56314;48.088;11.642;2022-09-21T01:44:38;5.38;;;2.67;;
26977;SDS011;56314;48.088;11.642;2022-09-21T01:47:06;6.68;;;2.95;;
26977;SDS011;56314;48.088;11.642;2022-09-21T01:49:35;5.40;;;2.70;;
26977;SDS011;56314;48.088;11.642;2022-09-21T01:52:05;6.15;;;2.90;;
26977;SDS011;56314;48.088;11.642;2022-09-21T01:54:42;4.72;;;2.45;;
26977;SDS011;56314;48.088;11.642;2022-09-21T01:57:24;7.20;;;2.90;;
26977;SDS011;56314;48.088;11.642;2022-09-21T01:59:56;5.30;;;2.97;;
26977;SDS011;56314;48.088;11.642;2022-09-21T02:07:47;5.05;;;2.75;;
26977;SDS011;56314;48.088;11.642;2022-09-21T02:10:16;6.45;;;2.92;;
26977;SDS011;56314;48.088;11.642;2022-09-21T02:12:46;6.63;;;2.80;;
26977;SDS011;56314;48.088;11.642;2022-09-21T02:15:13;3.08;;;2.40;;
26977;SDS011;56314;48.088;11.642;2022-09-21T02:17:45;5.47;;;2.45;;
26977;SDS011;56314;48.088;11.642;2022-09-21T02:20:23;4.82;;;2.85;;
26977;SDS011;56314;48.088;11.642;2022-09-21T02:31:05;3.23;;;2.00;;
26977;SDS011;56314;48.088;11.642;2022-09-21T02:33:51;3.67;;;2.42;;
26977;SDS011;56314;48.088;11.642;2022-09-21T02:36:34;3.75;;;2.72;;
26977;SDS011;56314;48.088;11.642;2022-09-21T02:39:09;4.88;;;2.70;;
26977;SDS011;56314;48.088;11.642;2022-09-21T02:44:41;4.80;;;2.78;;
26977;SDS011;56314;48.088;11.642;2022-09-21T02:47:13;4.57;;;3.38;;
26977;SDS011;56314;48.088;11.642;2022-09-21T02:49:45;2.90;;;2.60;;
26977;SDS011;56314;48.088;11.642;2022-09-21T02:52:25;3.53;;;2.65;;
26977;SDS011;56314;48.088;11.642;2022-09-21T02:54:53;5.78;;;3.05;;
26977;SDS011;56314;48.088;11.642;2022-09-21T02:57:21;6.40;;;2.88;;
26977;SDS011;56314;48.088;11.642;2022-09-21T02:59:47;4.35;;;2.67;;
26977;SDS011;56314;48.088;11.642;2022-09-21T03:02:14;3.92;;;2.78;;
26977;SDS011;56314;48.088;11.642;2022-09-21T03:04:40;3.92;;;2.85;;
26977;SDS011;56314;48.088;11.642;2022-09-21T03:07:11;5.32;;;2.72;;
26977;SDS011;56314;48.088;11.642;2022-09-21T03:09:40;3.65;;;2.53;;
26977;SDS011;56314;48.088;11.642;2022-09-21T03:12:06;5.63;;;2.70;;
26977;SDS011;56314;48.088;11.642;2022-09-21T03:14:31;4.63;;;2.95;;
26977;SDS011;56314;48.088;11.642;2022-09-21T03:16:57;5.43;;;3.03;;
26977;SDS011;56314;48.088;11.642;2022-09-21T03:19:23;5.18;;;3.03;;
26977;SDS011;56314;48.088;11.642;2022-09-21T03:21:49;4.30;;;3.20;;
26977;SDS011;56314;48.088;11.642;2022-09-21T03:24:15;5.80;;;2.90;;
26977;SDS011;56314;48.088;11.642;2022-09-21T03:27:00;3.08;;;2.72;;
26977;SDS011;56314;48.088;11.642;2022-09-21T03:29:25;3.60;;;2.95;;
26977;SDS011;56314;48.088;11.642;2022-09-21T03:31:51;6.15;;;3.28;;
26977;SDS011;56314;48.088;11.642;2022-09-21T03:34:18;6.68;;;3.70;;
26977;SDS011;56314;48.088;11.642;2022-09-21T03:36:45;6.22;;;3.05;;
26977;SDS011;56314;48.088;11.642;2022-09-21T03:39:10;8.25;;;3.63;;
26977;SDS011;56314;48.088;11.642;2022-09-21T03:41:35;6.07;;;3.50;;
26977;SDS011;56314;48.088;11.642;2022-09-21T03:44:01;6.00;;;3.58;;
26977;SDS011;56314;48.088;11.642;2022-09-21T03:46:26;7.30;;;3.03;;
26977;SDS011;56314;48.088;11.642;2022-09-21T03:48:52;7.20;;;3.30;;
26977;SDS011;56314;48.088;11.642;2022-09-21T03:51:17;4.82;;;3.40;;
26977;SDS011;56314;48.088;11.642;2022-09-21T03:53:43;9.30;;;3.63;;
26977;SDS011;56314;48.088;11.642;2022-09-21T03:56:08;7.82;;;3.47;;
26977;SDS011;56314;48.088;11.642;2022-09-21T03:58:33;5.57;;;3.03;;
26977;SDS011;56314;48.088;11.642;2022-09-21T04:01:02;5.75;;;3.45;;
26977;SDS011;56314;48.088;11.642;2022-09-21T04:03:28;5.97;;;3.08;;
26977;SDS011;56314;48.088;11.642;2022-09-21T04:05:53;6.05;;;3.17;;
26977;SDS011;56314;48.088;11.642;2022-09-21T04:08:19;6.57;;;3.15;;
26977;SDS011;56314;48.088;11.642;2022-09-21T04:10:44;3.63;;;2.78;;
26977;SDS011;56314;48.088;11.642;2022-09-21T04:13:10;5.10;;;3.03;;
26977;SDS011;56314;48.088;11.642;2022-09-21T04:15:36;6.78;;;2.60;;
26977;SDS011;56314;48.088;11.642;2022-09-21T04:18:01;5.00;;;3.30;;
26977;SDS011;56314;48.088;11.642;2022-09-21T04:20:26;4.07;;;3.13;;
26977;SDS011;56314;48.088;11.642;2022-09-21T04:22:52;4.60;;;3.15;;
26977;SDS011;56314;48.088;11.642;2022-09-21T04:25:17;3.38;;;2.42;;
26977;SDS011;56314;48.088;11.642;2022-09-21T04:27:43;5.22;;;2.95;;
26977;SDS011;56314;48.088;11.642;2022-09-21T04:30:09;4.15;;;2.35;;
26977;SDS011;56314;48.088;11.642;2022-09-21T04:32:36;3.58;;;3.05;;
26977;SDS011;56314;48.088;11.642;2022-09-21T04:35:02;6.25;;;2.85;;
26977;SDS011;56314;48.088;11.642;2022-09-21T04:37:27;3.88;;;3.05;;
26977;SDS011;56314;48.088;11.642;2022-09-21T04:39:53;4.93;;;2.95;;
26977;SDS011;56314;48.088;11.642;2022-09-21T04:42:18;3.90;;;2.65;;
26977;SDS011;56314;48.088;11.642;2022-09-21T04:44:43;4.60;;;3.30;;
26977;SDS011;56314;48.088;11.642;2022-09-21T04:47:09;3.75;;;2.70;;
26977;SDS011;56314;48.088;11.642;2022-09-21T04:49:34;3.92;;;2.97;;
26977;SDS011;56314;48.088;11.642;2022-09-21T04:51:59;5.65;;;3.03;;
26977;SDS011;56314;48.088;11.642;2022-09-21T04:54:25;5.20;;;2.95;;
26977;SDS011;56314;48.088;11.642;2022-09-21T04:56:51;5.18;;;2.80;;
26977;SDS011;56314;48.088;11.642;2022-09-21T04:59:16;4.93;;;2.97;;
26977;SDS011;56314;48.088;11.642;2022-09-21T05:01:42;5.05;;;3.20;;
26977;SDS011;56314;48.088;11.642;2022-09-21T05:04:07;6.78;;;2.97;;
26977;SDS011;56314;48.088;11.642;2022-09-21T05:06:33;5.60;;;3.22;;
26977;SDS011;56314;48.088;11.642;2022-09-21T05:08:59;4.80;;;2.85;;
26977;SDS011;56314;48.088;11.642;2022-09-21T05:11:43;5.93;;;2.10;;
26977;SDS011;56314;48.088;11.642;2022-09-21T05:14:08;3.05;;;2.67;;
26977;SDS011;56314;48.088;11.642;2022-09-21T05:16:34;9.32;;;4.13;;
26977;SDS011;56314;48.088;11.642;2022-09-21T05:19:00;5.22;;;3.42;;
26977;SDS011;56314;48.088;11.642;2022-09-21T05:21:25;4.43;;;2.83;;
26977;SDS011;56314;48.088;11.642;2022-09-21T05:23:51;6.22;;;3.40;;
26977;SDS011;56314;48.088;11.642;2022-09-21T05:26:17;5.65;;;3.58;;
26977;SDS011;56314;48.088;11.642;2022-09-21T05:28:42;8.00;;;3.40;;
26977;SDS011;56314;48.088;11.642;2022-09-21T05:31:10;5.30;;;3.20;;
26977;SDS011;56314;48.088;11.642;2022-09-21T05:36:58;4.35;;;2.70;;
26977;SDS011;56314;48.088;11.642;2022-09-21T05:39:29;7.25;;;3.75;;
26977;SDS011;56314;48.088;11.642;2022-09-21T05:41:55;6.30;;;3.67;;
26977;SDS011;56314;48.088;11.642;2022-09-21T05:44:21;4.90;;;2.80;;
26977;SDS011;56314;48.088;11.642;2022-09-21T05:46:58;4.68;;;3.13;;
26977;SDS011;56314;48.088;11.642;2022-09-21T05:49:37;8.18;;;3.50;;
26977;SDS011;56314;48.088;11.642;2022-09-21T05:52:20;7.22;;;3.55;;
26977;SDS011;56314;48.088;11.642;2022-09-21T05:55:02;4.63;;;3.17;;
26977;SDS011;56314;48.088;11.642;2022-09-21T06:00:45;7.05;;;3.20;;
26977;SDS011;56314;48.088;11.642;2022-09-21T06:03:26;5.25;;;3.58;;
26977;SDS011;56314;48.088;11.642;2022-09-21T06:05:54;5.80;;;3.55;;
26977;SDS011;56314;48.088;11.642;2022-09-21T06:08:20;3.88;;;3.03;;
26977;SDS011;56314;48.088;11.642;2022-09-21T06:10:46;5.35;;;3.60;;
26977;SDS011;56314;48.088;11.642;2022-09-21T06:13:12;8.63;;;3.90;;
26977;SDS011;56314;48.088;11.642;2022-09-21T06:15:38;6.28;;;4.22;;
26977;SDS011;56314;48.088;11.642;2022-09-21T06:18:04;5.75;;;3.80;;
26977;SDS011;56314;48.088;11.642;2022-09-21T06:20:30;7.82;;;4.20;;
26977;SDS011;56314;48.088;11.642;2022-09-21T06:23:02;10.13;;;4.13;;
26977;SDS011;56314;48.088;11.642;2022-09-21T06:25:31;5.47;;;4.20;;
26977;SDS011;56314;48.088;11.642;2022-09-21T06:28:04;8.70;;;4.28;;
26977;SDS011;56314;48.088;11.642;2022-09-21T06:30:32;7.63;;;4.20;;
26977;SDS011;56314;48.088;11.642;2022-09-21T06:33:01;6.45;;;4.00;;
26977;SDS011;56314;48.088;11.642;2022-09-21T06:35:28;7.85;;;4.15;;
26977;SDS011;56314;48.088;11.642;2022-09-21T06:37:58;6.65;;;4.68;;
26977;SDS011;56314;48.088;11.642;2022-09-21T06:40:25;10.20;;;4.93;;
26977;SDS011;56314;48.088;11.642;2022-09-21T06:42:54;8.52;;;4.72;;
26977;SDS011;56314;48.088;11.642;2022-09-21T06:45:21;5.80;;;4.00;;
26977;SDS011;56314;48.088;11.642;2022-09-21T06:47:46;10.13;;;4.95;;
26977;SDS011;56314;48.088;11.642;2022-09-21T06:50:12;7.28;;;4.50;;
26977;SDS011;56314;48.088;11.642;2022-09-21T06:52:38;8.90;;;4.95;;
26977;SDS011;56314;48.088;11.642;2022-09-21T06:55:04;46.20;;;8.40;;
26977;SDS011;56314;48.088;11.642;2022-09-21T06:57:30;131.02;;;19.25;;
26977;SDS011;56314;48.088;11.642;2022-09-21T06:59:56;55.10;;;10.52;;
26977;SDS011;56314;48.088;11.642;2022-09-21T07:02:21;13.65;;;4.85;;
26977;SDS011;56314;48.088;11.642;2022-09-21T07:04:46;8.98;;;4.60;;
26977;SDS011;56314;48.088;11.642;2022-09-21T07:07:12;8.07;;;4.05;;
26977;SDS011;56314;48.088;11.642;2022-09-21T07:09:37;14.55;;;4.85;;
26977;SDS011;56314;48.088;11.642;2022-09-21T07:12:03;8.25;;;4.82;;
26977;SDS011;56314;48.088;11.642;2022-09-21T07:14:28;6.53;;;3.92;;
26977;SDS011;56314;48.088;11.642;2022-09-21T07:16:53;7.00;;;4.05;;
26977;SDS011;56314;48.088;11.642;2022-09-21T07:19:19;9.38;;;4.63;;
26977;SDS011;56314;48.088;11.642;2022-09-21T07:21:44;7.47;;;4.70;;
26977;SDS011;56314;48.088;11.642;2022-09-21T07:24:09;10.50;;;4.32;;
26977;SDS011;56314;48.088;11.642;2022-09-21T07:26:35;8.25;;;3.97;;
26977;SDS011;56314;48.088;11.642;2022-09-21T07:29:01;12.23;;;4.05;;
26977;SDS011;56314;48.088;11.642;2022-09-21T07:31:26;8.90;;;3.85;;
26977;SDS011;56314;48.088;11.642;2022-09-21T07:33:55;5.85;;;3.25;;
26977;SDS011;56314;48.088;11.642;2022-09-21T07:36:22;4.18;;;3.05;;
26977;SDS011;56314;48.088;11.642;2022-09-21T07:38:47;4.97;;;2.60;;
26977;SDS011;56314;48.088;11.642;2022-09-21T07:41:13;6.85;;;2.60;;
26977;SDS011;56314;48.088;11.642;2022-09-21T07:43:39;7.03;;;2.38;;
26977;SDS011;56314;48.088;11.642;2022-09-21T07:46:05;6.50;;;2.45;;
26977;SDS011;56314;48.088;11.642;2022-09-21T07:48:32;8.90;;;2.28;;
26977;SDS011;56314;48.088;11.642;2022-09-21T07:51:01;6.10;;;2.03;;
26977;SDS011;56314;48.088;11.642;2022-09-21T07:53:34;5.15;;;1.90;;
26977;SDS011;56314;48.088;11.642;2022-09-21T07:56:02;4.75;;;1.70;;
26977;SDS011;56314;48.088;11.642;2022-09-21T07:58:29;2.30;;;1.60;;
26977;SDS011;56314;48.088;11.642;2022-09-21T08:01:13;2.42;;;1.20;;
26977;SDS011;56314;48.088;11.642;2022-09-21T08:03:38;2.05;;;1.15;;
26977;SDS011;56314;48.088;11.642;2022-09-21T08:06:04;3.22;;;1.23;;
26977;SDS011;56314;48.088;11.642;2022-09-21T08:08:31;0.80;;;0.70;;
26977;SDS011;56314;48.088;11.642;2022-09-21T08:11:00;2.00;;;0.77;;
26977;SDS011;56314;48.088;11.642;2022-09-21T08:13:28;1.67;;;1.20;;
26977;SDS011;56314;48.088;11.642;2022-09-21T08:15:59;2.35;;;1.20;;
26977;SDS011;56314;48.088;11.642;2022-09-21T08:18:26;1.45;;;0.98;;
26977;SDS011;56314;48.088;11.642;2022-09-21T08:20:53;2.92;;;1.20;;
26977;SDS011;56314;48.088;11.642;2022-09-21T08:23:19;0.90;;;0.90;;
26977;SDS011;56314;48.088;11.642;2022-09-21T08:25:45;3.17;;;1.58;;
26977;SDS011;56314;48.088;11.642;2022-09-21T08:28:10;2.70;;;1.30;;
26977;SDS011;56314;48.088;11.642;2022-09-21T08:30:35;1.42;;;1.00;;
26977;SDS011;56314;48.088;11.642;2022-09-21T08:33:01;3.05;;;1.00;;
26977;SDS011;56314;48.088;11.642;2022-09-21T08:35:27;1.58;;;1.25;;
26977;SDS011;56314;48.088;11.642;2022-09-21T08:37:52;1.42;;;0.98;;
26977;SDS011;56314;48.088;11.642;2022-09-21T08:40:18;2.25;;;1.25;;
26977;SDS011;56314;48.088;11.642;2022-09-21T08:45:29;1.60;;;1.27;;
26977;SDS011;56314;48.088;11.642;2022-09-21T08:47:58;1.20;;;1.00;;
26977;SDS011;56314;48.088;11.642;2022-09-21T08:55:59;1.85;;;1.00;;
26977;SDS011;56314;48.088;11.642;2022-09-21T08:58:27;4.78;;;1.20;;
26977;SDS011;56314;48.088;11.642;2022-09-21T09:03:52;1.33;;;0.80;;
26977;SDS011;56314;48.088;11.642;2022-09-21T09:06:28;3.75;;;1.42;;
26977;SDS011;56314;48.088;11.642;2022-09-21T09:09:06;3.90;;;1.33;;
26977;SDS011;56314;48.088;11.642;2022-09-21T09:11:40;2.50;;;1.40;;
26977;SDS011;56314;48.088;11.642;2022-09-21T09:14:29;5.45;;;2.70;;
26977;SDS011;56314;48.088;11.642;2022-09-21T09:17:08;2.15;;;1.02;;
26977;SDS011;56314;48.088;11.642;2022-09-21T09:20:04;3.55;;;1.05;;
26977;SDS011;56314;48.088;11.642;2022-09-21T09:22:33;1.17;;;0.95;;
26977;SDS011;56314;48.088;11.642;2022-09-21T09:25:04;1.35;;;1.15;;
26977;SDS011;56314;48.088;11.642;2022-09-21T09:27:40;2.17;;;1.55;;
26977;SDS011;56314;48.088;11.642;2022-09-21T09:35:28;1.88;;;0.90;;
26977;SDS011;56314;48.088;11.642;2022-09-21T09:37:59;4.53;;;1.33;;
26977;SDS011;56314;48.088;11.642;2022-09-21T09:40:51;1.83;;;1.23;;
26977;SDS011;56314;48.088;11.642;2022-09-21T09:43:31;1.00;;;0.90;;
26977;SDS011;56314;48.088;11.642;2022-09-21T09:46:25;2.15;;;1.05;;
26977;SDS011;56314;48.088;11.642;2022-09-21T09:49:06;3.40;;;1.20;;
26977;SDS011;56314;48.088;11.642;2022-09-21T09:51:43;1.48;;;0.90;;
26977;SDS011;56314;48.088;11.642;2022-09-21T09:54:12;2.33;;;1.13;;
26977;SDS011;56314;48.088;11.642;2022-09-21T09:56:40;2.50;;;1.17;;
26977;SDS011;56314;48.088;11.642;2022-09-21T09:59:09;2.10;;;1.15;;
26977;SDS011;56314;48.088;11.642;2022-09-21T10:01:43;1.45;;;0.98;;
26977;SDS011;56314;48.088;11.642;2022-09-21T10:04:13;1.10;;;1.00;;
26977;SDS011;56314;48.088;11.642;2022-09-21T10:06:40;2.97;;;0.70;;
26977;SDS011;56314;48.088;11.642;2022-09-21T10:09:21;1.08;;;0.80;;
26977;SDS011;56314;48.088;11.642;2022-09-21T10:14:20;3.33;;;1.20;;
26977;SDS011;56314;48.088;11.642;2022-09-21T10:16:48;1.38;;;1.00;;
26977;SDS011;56314;48.088;11.642;2022-09-21T10:19:17;1.27;;;0.88;;
26977;SDS011;56314;48.088;11.642;2022-09-21T10:21:46;3.70;;;0.98;;
26977;SDS011;56314;48.088;11.642;2022-09-21T10:24:14;2.03;;;0.90;;
26977;SDS011;56314;48.088;11.642;2022-09-21T10:31:56;1.80;;;0.90;;
26977;SDS011;56314;48.088;11.642;2022-09-21T10:37:33;1.10;;;0.98;;
26977;SDS011;56314;48.088;11.642;2022-09-21T10:40:01;1.67;;;0.90;;
26977;SDS011;56314;48.088;11.642;2022-09-21T10:42:32;5.07;;;0.90;;
26977;SDS011;56314;48.088;11.642;2022-09-21T10:45:19;2.58;;;0.95;;
26977;SDS011;56314;48.088;11.642;2022-09-21T10:47:48;1.15;;;0.70;;
26977;SDS011;56314;48.088;11.642;2022-09-21T10:52:48;2.63;;;0.90;;
26977;SDS011;56314;48.088;11.642;2022-09-21T10:55:19;3.55;;;1.00;;
26977;SDS011;56314;48.088;11.642;2022-09-21T10:57:46;1.55;;;0.98;;
26977;SDS011;56314;48.088;11.642;2022-09-21T11:02:59;1.25;;;0.85;;
26977;SDS011;56314;48.088;11.642;2022-09-21T11:05:30;2.72;;;1.00;;
26977;SDS011;56314;48.088;11.642;2022-09-21T11:08:01;2.30;;;1.05;;
26977;SDS011;56314;48.088;11.642;2022-09-21T11:10:50;1.85;;;0.70;;
26977;SDS011;56314;48.088;11.642;2022-09-21T11:16:31;0.77;;;0.77;;
26977;SDS011;56314;48.088;11.642;2022-09-21T11:21:55;1.98;;;1.05;;
26977;SDS011;56314;48.088;11.642;2022-09-21T11:27:20;2.17;;;0.82;;
26977;SDS011;56314;48.088;11.642;2022-09-21T11:30:03;1.23;;;0.60;;
26977;SDS011;56314;48.088;11.642;2022-09-21T11:46:25;1.35;;;0.70;;
26977;SDS011;56314;48.088;11.642;2022-09-21T11:55:06;1.77;;;0.90;;
26977;SDS011;56314;48.088;11.642;2022-09-21T11:57:43;2.10;;;0.80;;
26977;SDS011;56314;48.088;11.642;2022-09-21T12:00:14;2.95;;;0.80;;
26977;SDS011;56314;48.088;11.642;2022-09-21T12:06:05;4.38;;;0.65;;
26977;SDS011;56314;48.088;11.642;2022-09-21T12:22:32;2.38;;;0.80;;
26977;SDS011;56314;48.088;11.642;2022-09-21T12:27:48;1.00;;;0.70;;
26977;SDS011;56314;48.088;11.642;2022-09-21T12:30:18;0.50;;;0.50;;
26977;SDS011;56314;48.088;11.642;2022-09-21T12:32:56;1.35;;;0.70;;
26977;SDS011;56314;48.088;11.642;2022-09-21T12:35:34;1.05;;;0.70;;
26977;SDS011;56314;48.088;11.642;2022-09-21T12:41:03;2.97;;;0.85;;
26977;SDS011;56314;48.088;11.642;2022-09-21T12:43:42;0.65;;;0.57;;
26977;SDS011;56314;48.088;11.642;2022-09-21T12:46:14;1.65;;;0.80;;
26977;SDS011;56314;48.088;11.642;2022-09-21T12:48:45;1.02;;;0.77;;
26977;SDS011;56314;48.088;11.642;2022-09-21T12:51:23;1.63;;;0.77;;
26977;SDS011;56314;48.088;11.642;2022-09-21T12:53:51;0.82;;;0.60;;
26977;SDS011;56314;48.088;11.642;2022-09-21T13:02:15;0.88;;;0.70;;
26977;SDS011;56314;48.088;11.642;2022-09-21T13:12:52;2.47;;;0.60;;
26977;SDS011;56314;48.088;11.642;2022-09-21T13:15:26;2.05;;;1.00;;
26977;SDS011;56314;48.088;11.642;2022-09-21T13:17:56;0.95;;;0.75;;
26977;SDS011;56314;48.088;11.642;2022-09-21T13:20:24;2.42;;;0.70;;
26977;SDS011;56314;48.088;11.642;2022-09-21T13:22:50;0.90;;;0.68;;
26977;SDS011;56314;48.088;11.642;2022-09-21T13:25:25;1.17;;;0.75;;
26977;SDS011;56314;48.088;11.642;2022-09-21T13:28:02;1.17;;;0.70;;
26977;SDS011;56314;48.088;11.642;2022-09-21T13:30:38;2.38;;;0.82;;
26977;SDS011;56314;48.088;11.642;2022-09-21T13:35:50;1.27;;;0.77;;
26977;SDS011;56314;48.088;11.642;2022-09-21T13:38:33;3.05;;;1.08;;
26977;SDS011;56314;48.088;11.642;2022-09-21T13:41:25;2.90;;;1.13;;
26977;SDS011;56314;48.088;11.642;2022-09-21T13:49:01;1.33;;;0.73;;
26977;SDS011;56314;48.088;11.642;2022-09-21T13:51:32;4.03;;;0.82;;
26977;SDS011;56314;48.088;11.642;2022-09-21T13:53:59;2.35;;;0.70;;
26977;SDS011;56314;48.088;11.642;2022-09-21T13:56:26;2.35;;;0.70;;
26977;SDS011;56314;48.088;11.642;2022-09-21T13:58:54;0.93;;;0.90;;
26977;SDS011;56314;48.088;11.642;2022-09-21T14:01:22;1.85;;;1.10;;
26977;SDS011;56314;48.088;11.642;2022-09-21T14:03:59;2.05;;;0.82;;
26977;SDS011;56314;48.088;11.642;2022-09-21T14:06:33;1.58;;;0.63;;
26977;SDS011;56314;48.088;11.642;2022-09-21T14:09:07;1.63;;;0.88;;
26977;SDS011;56314;48.088;11.642;2022-09-21T14:11:59;3.20;;;0.88;;
26977;SDS011;56314;48.088;11.642;2022-09-21T14:14:29;1.88;;;0.80;;
26977;SDS011;56314;48.088;11.642;2022-09-21T14:16:57;1.55;;;1.00;;
26977;SDS011;56314;48.088;11.642;2022-09-21T14:24:38;1.70;;;1.13;;
26977;SDS011;56314;48.088;11.642;2022-09-21T14:30:05;1.52;;;0.60;;
26977;SDS011;56314;48.088;11.642;2022-09-21T14:32:48;2.75;;;1.02;;
26977;SDS011;56314;48.088;11.642;2022-09-21T14:35:33;0.60;;;0.60;;
26977;SDS011;56314;48.088;11.642;2022-09-21T14:38:03;0.88;;;0.70;;
26977;SDS011;56314;48.088;11.642;2022-09-21T14:40:38;1.92;;;0.65;;
26977;SDS011;56314;48.088;11.642;2022-09-21T14:43:12;1.38;;;0.50;;
26977;SDS011;56314;48.088;11.642;2022-09-21T15:00:24;0.60;;;0.60;;
26977;SDS011;56314;48.088;11.642;2022-09-21T15:03:08;0.90;;;0.80;;
26977;SDS011;56314;48.088;11.642;2022-09-21T15:06:20;2.58;;;0.75;;
26977;SDS011;56314;48.088;11.642;2022-09-21T15:12:14;2.25;;;0.73;;
26977;SDS011;56314;48.088;11.642;2022-09-21T15:14:45;2.42;;;1.02;;
26977;SDS011;56314;48.088;11.642;2022-09-21T15:20:00;0.65;;;0.63;;
26977;SDS011;56314;48.088;11.642;2022-09-21T15:22:42;0.88;;;0.60;;
26977;SDS011;56314;48.088;11.642;2022-09-21T15:25:10;0.82;;;0.70;;
26977;SDS011;56314;48.088;11.642;2022-09-21T15:27:37;1.70;;;0.57;;
26977;SDS011;56314;48.088;11.642;2022-09-21T15:30:06;2.92;;;0.88;;
26977;SDS011;56314;48.088;11.642;2022-09-21T15:32:45;1.58;;;0.98;;
26977;SDS011;56314;48.088;11.642;2022-09-21T15:35:20;1.90;;;0.73;;
26977;SDS011;56314;48.088;11.642;2022-09-21T15:37:47;2.40;;;0.95;;
26977;SDS011;56314;48.088;11.642;2022-09-21T15:40:23;1.17;;;1.00;;
26977;SDS011;56314;48.088;11.642;2022-09-21T15:48:31;1.30;;;1.20;;
26977;SDS011;56314;48.088;11.642;2022-09-21T15:53:43;1.20;;;0.77;;
26977;SDS011;56314;48.088;11.642;2022-09-21T15:56:16;2.78;;;1.23;;
26977;SDS011;56314;48.088;11.642;2022-09-21T15:58:43;2.55;;;1.00;;
26977;SDS011;56314;48.088;11.642;2022-09-21T16:01:11;2.40;;;0.95;;
26977;SDS011;56314;48.088;11.642;2022-09-21T16:03:40;2.25;;;0.93;;
26977;SDS011;56314;48.088;11.642;2022-09-21T16:06:23;1.00;;;0.82;;
26977;SDS011;56314;48.088;11.642;2022-09-21T16:08:50;2.25;;;1.25;;
26977;SDS011;56314;48.088;11.642;2022-09-21T16:17:02;1.50;;;1.00;;
26977;SDS011;56314;48.088;11.642;2022-09-21T16:19:44;3.92;;;1.40;;
26977;SDS011;56314;48.088;11.642;2022-09-21T16:22:39;3.88;;;1.10;;
26977;SDS011;56314;48.088;11.642;2022-09-21T16:25:25;1.88;;;0.95;;
26977;SDS011;56314;48.088;11.642;2022-09-21T16:28:03;3.53;;;1.20;;
26977;SDS011;56314;48.088;11.642;2022-09-21T16:38:41;3.42;;;1.10;;
26977;SDS011;56314;48.088;11.642;2022-09-21T16:41:07;3.25;;;0.95;;
26977;SDS011;56314;48.088;11.642;2022-09-21T16:43:33;2.20;;;1.48;;
26977;SDS011;56314;48.088;11.642;2022-09-21T16:46:07;4.35;;;1.58;;
26977;SDS011;56314;48.088;11.642;2022-09-21T16:48:37;2.85;;;1.45;;
26977;SDS011;56314;48.088;11.642;2022-09-21T16:51:04;1.35;;;1.23;;
26977;SDS011;56314;48.088;11.642;2022-09-21T16:53:34;2.08;;;1.25;;
26977;SDS011;56314;48.088;11.642;2022-09-21T16:55:59;1.38;;;1.15;;
26977;SDS011;56314;48.088;11.642;2022-09-21T16:58:25;2.58;;;1.20;;
26977;SDS011;56314;48.088;11.642;2022-09-21T17:00:52;2.45;;;1.00;;
26977;SDS011;56314;48.088;11.642;2022-09-21T17:03:18;1.80;;;1.10;;
26977;SDS011;56314;48.088;11.642;2022-09-21T17:05:44;2.25;;;1.23;;
26977;SDS011;56314;48.088;11.642;2022-09-21T17:08:09;2.50;;;1.40;;
26977;SDS011;56314;48.088;11.642;2022-09-21T17:10:36;4.75;;;1.80;;
26977;SDS011;56314;48.088;11.642;2022-09-21T17:13:04;2.78;;;1.20;;
26977;SDS011;56314;48.088;11.642;2022-09-21T17:15:33;4.15;;;1.42;;
26977;SDS011;56314;48.088;11.642;2022-09-21T17:18:00;4.43;;;1.50;;
26977;SDS011;56314;48.088;11.642;2022-09-21T17:22:59;3.43;;;1.60;;
26977;SDS011;56314;48.088;11.642;2022-09-21T17:25:27;2.28;;;1.60;;
26977;SDS011;56314;48.088;11.642;2022-09-21T17:27:53;3.08;;;1.55;;
26977;SDS011;56314;48.088;11.642;2022-09-21T17:30:21;4.55;;;1.55;;
26977;SDS011;56314;48.088;11.642;2022-09-21T17:32:48;4.35;;;1.70;;
26977;SDS011;56314;48.088;11.642;2022-09-21T17:37:59;3.40;;;1.83;;
26977;SDS011;56314;48.088;11.642;2022-09-21T17:40:25;3.03;;;1.70;;
26977;SDS011;56314;48.088;11.642;2022-09-21T17:42:51;3.70;;;1.75;;
26977;SDS011;56314;48.088;11.642;2022-09-21T17:48:02;2.58;;;2.05;;
26977;SDS011;56314;48.088;11.642;2022-09-21T17:50:28;4.57;;;2.70;;
26977;SDS011;56314;48.088;11.642;2022-09-21T17:52:54;5.72;;;2.20;;
26977;SDS011;56314;48.088;11.642;2022-09-21T17:55:39;4.88;;;2.55;;
26977;SDS011;56314;48.088;11.642;2022-09-21T17:58:21;4.40;;;2.30;;
26977;SDS011;56314;48.088;11.642;2022-09-21T18:01:10;3.53;;;2.15;;
26977;SDS011;56314;48.088;11.642;2022-09-21T18:03:44;3.80;;;1.95;;
26977;SDS011;56314;48.088;11.642;2022-09-21T18:06:10;2.30;;;2.08;;
26977;SDS011;56314;48.088;11.642;2022-09-21T18:08:36;3.10;;;1.90;;
26977;SDS011;56314;48.088;11.642;2022-09-21T18:13:59;4.88;;;1.80;;
26977;SDS011;56314;48.088;11.642;2022-09-21T18:25:43;2.50;;;1.58;;
26977;SDS011;56314;48.088;11.642;2022-09-21T18:28:16;4.85;;;1.90;;